Time;durP1;ratioP1;P1;durP2;ratioP2;P2;SDS_P1;SDS_P2;PMS_P1;PMS_P2;Temp;Humidity;BMP_temperature;BMP_pressure;BME280_temperature;BME280_humidity;BME280_pressure;Samples;Min_cycle;Max_cycle;Signal;HPM_P1;HPM_P2
2023/03/17 00:01:58;;;;;;;6.50;2.60;;;;;;;1.88;76.58;101604.61;109349;1244;73401;-82
2023/03/17 00:04:26;;;;;;;6.40;3.10;;;;;;;1.85;76.33;101600.52;109419;1244;72278;-83
2023/03/17 00:06:56;;;;;;;6.20;2.40;;;;;;;1.87;76.14;101605.13;109430;1244;69153;-85
2023/03/17 00:09:25;;;;;;;6.10;2.70;;;;;;;1.83;75.98;101608.65;109305;1244;71893;-83
2023/03/17 00:11:54;;;;;;;4.90;2.80;;;;;;;1.85;75.65;101606.73;109519;1247;59980;-83
2023/03/17 00:14:23;;;;;;;9.50;2.90;;;;;;;1.86;75.33;101602.91;109495;1244;59575;-83
2023/03/17 00:16:52;;;;;;;7.30;3.00;;;;;;;1.83;75.07;101608.31;109582;1244;62976;-84
2023/03/17 00:19:34;;;;;;;9.60;3.70;;;;;;;1.81;74.83;101606.80;109574;1245;69742;-83
2023/03/17 00:22:14;;;;;;;9.50;4.00;;;;;;;1.78;74.84;101609.29;109483;1244;68637;-83
2023/03/17 00:24:43;;;;;;;4.80;2.20;;;;;;;1.76;75.06;101610.53;109456;1244;63669;-84
2023/03/17 00:27:12;;;;;;;6.30;3.20;;;;;;;1.72;75.14;101613.01;109568;1245;58739;-84
2023/03/17 00:29:41;;;;;;;5.70;3.00;;;;;;;1.69;75.57;101612.23;109420;1244;58849;-82
2023/03/17 00:32:18;;;;;;;7.60;3.30;;;;;;;1.66;75.67;101616.42;109516;1245;72530;-83
2023/03/17 00:34:47;;;;;;;6.70;3.70;;;;;;;1.63;75.86;101618.87;109466;1244;72533;-82
2023/03/17 00:37:16;;;;;;;6.00;2.80;;;;;;;1.56;75.76;101611.81;109553;1244;69104;-83
2023/03/17 00:39:45;;;;;;;8.30;3.50;;;;;;;1.59;75.59;101623.08;109587;1244;71690;-83
2023/03/17 00:42:14;;;;;;;8.80;4.80;;;;;;;1.55;76.03;101622.31;109540;1245;61440;-84
2023/03/17 00:44:43;;;;;;;9.20;4.00;;;;;;;1.56;75.56;101626.56;109552;1244;61100;-84
2023/03/17 00:47:12;;;;;;;9.20;4.10;;;;;;;1.54;75.31;101629.02;109590;1243;72321;-83
2023/03/17 00:49:41;;;;;;;5.80;2.80;;;;;;;1.52;75.37;101631.12;109602;1245;72666;-82
2023/03/17 00:52:10;;;;;;;3.50;1.90;;;;;;;1.48;75.50;101633.77;109558;1244;68649;-81
2023/03/17 00:54:40;;;;;;;5.20;2.40;;;;;;;1.41;75.74;101638.04;109531;1243;71165;-81
2023/03/17 00:57:09;;;;;;;5.10;2.20;;;;;;;1.37;75.61;101635.71;109531;1245;59375;-86
2023/03/17 00:59:41;;;;;;;6.20;2.80;;;;;;;1.34;75.30;101639.70;109568;1243;58812;-83
2023/03/17 01:02:12;;;;;;;8.00;3.40;;;;;;;1.35;75.17;101644.50;109611;1244;70878;-83
2023/03/17 01:04:44;;;;;;;5.40;2.80;;;;;;;1.28;75.20;101643.59;109564;1244;70322;-81
2023/03/17 01:07:21;;;;;;;5.50;2.20;;;;;;;1.29;74.61;101639.63;109743;1243;67835;-82
2023/03/17 01:09:50;;;;;;;4.90;2.40;;;;;;;1.27;74.64;101642.59;109544;1244;73036;-83
2023/03/17 01:12:20;;;;;;;6.70;2.60;;;;;;;1.27;74.50;101642.25;109589;1244;62414;-82
2023/03/17 01:14:49;;;;;;;5.30;2.30;;;;;;;1.25;74.25;101644.35;109565;1243;60123;-82
2023/03/17 01:17:18;;;;;;;6.70;2.90;;;;;;;1.25;74.05;101647.27;109533;1244;71988;-82
2023/03/17 01:19:47;;;;;;;5.30;2.20;;;;;;;1.22;73.83;101646.30;109578;1245;72740;-83
2023/03/17 01:22:16;;;;;;;3.60;2.10;;;;;;;1.23;73.76;101648.52;109487;1244;67496;-83
2023/03/17 01:24:46;;;;;;;5.50;2.20;;;;;;;1.23;73.54;101644.20;109478;1243;73005;-83
2023/03/17 01:27:17;;;;;;;4.10;2.50;;;;;;;1.23;73.62;101649.36;109484;1247;60061;-84
2023/03/17 01:29:46;;;;;;;2.90;1.70;;;;;;;1.19;73.63;101655.95;109490;1243;59626;-84
2023/03/17 01:32:15;;;;;;;3.10;1.80;;;;;;;1.18;73.42;101654.77;109502;1244;72787;-83
2023/03/17 01:34:44;;;;;;;3.90;1.90;;;;;;;1.21;73.10;101659.36;109522;1244;71959;-84
2023/03/17 01:37:13;;;;;;;3.80;1.70;;;;;;;1.23;73.20;101662.57;109492;1244;69093;-81
2023/03/17 01:39:42;;;;;;;3.10;2.00;;;;;;;1.23;72.93;101663.59;109500;1243;71106;-83
2023/03/17 01:42:12;;;;;;;3.70;1.90;;;;;;;1.25;72.79;101671.46;109481;1244;59643;-83
2023/03/17 01:45:06;;;;;;;3.60;1.70;;;;;;;1.24;73.14;101671.98;109529;1244;59048;-83
2023/03/17 01:47:35;;;;;;;3.40;1.70;;;;;;;1.26;73.07;101677.98;109520;1245;73228;-82
2023/03/17 01:50:08;;;;;;;5.50;2.30;;;;;;;1.25;73.29;101682.45;109623;1243;71768;-83
2023/03/17 01:52:39;;;;;;;3.70;1.80;;;;;;;1.25;73.32;101684.67;109513;1244;70803;-84
2023/03/17 01:55:16;;;;;;;5.10;2.40;;;;;;;1.21;73.61;101690.23;109570;1243;74412;-83
2023/03/17 01:57:55;;;;;;;4.90;1.70;;;;;;;1.22;73.55;101689.18;109587;1245;58440;-82
2023/03/17 02:00:25;;;;;;;2.90;2.00;;;;;;;1.20;73.46;101687.51;109492;1243;61034;-82
2023/03/17 02:02:56;;;;;;;3.70;2.20;;;;;;;1.18;73.82;101693.55;109414;1244;75093;-83
2023/03/17 02:05:28;;;;;;;6.40;2.30;;;;;;;1.15;74.01;101701.50;109359;1244;70730;-81
2023/03/17 02:07:58;;;;;;;4.70;2.40;;;;;;;1.12;75.27;101699.82;109400;1244;68599;-82
2023/03/17 02:10:29;;;;;;;4.60;2.60;;;;;;;1.08;75.35;101702.98;109392;1244;72622;-83
2023/03/17 02:13:04;;;;;;;7.50;2.70;;;;;;;1.08;75.43;101707.80;109375;1248;58056;-83
2023/03/17 02:15:40;;;;;;;8.40;2.50;;;;;;;1.08;75.28;101707.96;109377;1244;61140;-82
2023/03/17 02:18:12;;;;;;;7.40;3.00;;;;;;;1.04;75.28;101711.46;109468;1244;72023;-84
2023/03/17 02:20:47;;;;;;;5.10;2.40;;;;;;;1.01;75.56;101711.86;109468;1244;69627;-82
2023/03/17 02:23:21;;;;;;;5.10;2.20;;;;;;;0.95;76.36;101716.23;109459;1244;68609;-83
2023/03/17 02:25:52;;;;;;;7.30;2.70;;;;;;;0.92;76.65;101715.61;109395;1244;71352;-83
2023/03/17 02:28:28;;;;;;;7.40;2.80;;;;;;;0.89;77.09;101718.40;109417;1247;60551;-83
2023/03/17 02:30:57;;;;;;;7.20;2.60;;;;;;;0.86;77.14;101722.39;109489;1244;58847;-83
2023/03/17 02:33:26;;;;;;;4.60;2.60;;;;;;;0.82;77.51;101728.80;109525;1244;72063;-81
2023/03/17 02:35:55;;;;;;;8.10;2.80;;;;;;;0.81;77.09;101732.95;109586;1244;69488;-83
2023/03/17 02:38:24;;;;;;;8.90;3.20;;;;;;;0.76;77.41;101736.78;109644;1244;69533;-81
2023/03/17 02:40:53;;;;;;;10.00;3.10;;;;;;;0.74;77.55;101741.27;109480;1244;73365;-83
2023/03/17 02:43:22;;;;;;;7.70;2.80;;;;;;;0.73;77.30;101741.98;109185;1250;58642;-83
2023/03/17 02:45:51;;;;;;;6.90;2.90;;;;;;;0.66;77.22;101745.84;109317;1245;58675;-83
2023/03/17 02:48:21;;;;;;;5.00;2.50;;;;;;;0.63;77.17;101744.19;109223;1244;72725;-83
2023/03/17 02:50:50;;;;;;;7.40;2.70;;;;;;;0.56;78.19;101745.48;109217;1244;71017;-83
2023/03/17 02:53:19;;;;;;;6.40;2.80;;;;;;;0.55;77.84;101747.90;109262;1245;69473;-83
2023/03/17 02:55:48;;;;;;;5.60;2.60;;;;;;;0.54;77.99;101749.29;109234;1244;72440;-84
2023/03/17 02:58:17;;;;;;;4.60;2.40;;;;;;;0.49;78.02;101749.88;109226;1245;61747;-82
2023/03/17 03:00:46;;;;;;;8.50;3.00;;;;;;;0.48;78.24;101751.43;109281;1244;61577;-83
2023/03/17 03:03:15;;;;;;;4.60;2.80;;;;;;;0.42;78.55;101753.39;109258;1245;72349;-81
2023/03/17 03:05:44;;;;;;;5.30;3.00;;;;;;;0.42;78.65;101753.22;109280;1244;72013;-82
2023/03/17 03:08:13;;;;;;;6.30;3.20;;;;;;;0.36;78.92;101756.58;109302;1244;70776;-82
2023/03/17 03:10:41;;;;;;;6.20;2.80;;;;;;;0.34;78.53;101759.85;109268;1244;74033;-82
2023/03/17 03:13:10;;;;;;;7.90;3.10;;;;;;;0.33;78.19;101762.43;109251;1245;60185;-84
2023/03/17 03:15:43;;;;;;;6.40;3.20;;;;;;;0.28;78.97;101767.46;109170;1244;57933;-84
2023/03/17 03:18:12;;;;;;;9.80;3.80;;;;;;;0.26;78.96;101769.20;109273;1244;73553;-83
2023/03/17 03:20:43;;;;;;;11.30;4.40;;;;;;;0.22;79.34;101769.93;109246;1244;71267;-83
2023/03/17 03:23:13;;;;;;;10.10;4.90;;;;;;;0.16;79.65;101773.44;109203;1244;69118;-85
2023/03/17 03:25:42;;;;;;;6.40;3.40;;;;;;;0.16;79.34;101771.89;109154;1248;72940;-83
2023/03/17 03:28:11;;;;;;;9.40;3.90;;;;;;;0.12;79.63;101771.77;109304;1247;61715;-83
2023/03/17 03:30:40;;;;;;;8.60;4.10;;;;;;;0.09;79.27;101768.22;109304;1244;60850;-83
2023/03/17 03:33:11;;;;;;;10.70;4.60;;;;;;;0.07;79.09;101767.54;109245;1245;71568;-85
2023/03/17 03:35:40;;;;;;;8.90;3.90;;;;;;;0.02;79.21;101772.08;109261;1244;70738;-83
2023/03/17 03:38:11;;;;;;;9.50;4.20;;;;;;;0.00;78.87;101773.81;109280;1244;68020;-82
2023/03/17 03:40:40;;;;;;;7.60;3.30;;;;;;;-0.04;79.31;101776.58;109283;1244;73615;-83
2023/03/17 03:43:08;;;;;;;12.00;4.30;;;;;;;-0.07;79.44;101779.02;109253;1247;61597;-83
2023/03/17 03:45:50;;;;;;;9.80;3.60;;;;;;;-0.13;80.24;101776.00;109323;1244;58801;-83
2023/03/17 03:48:20;;;;;;;10.60;3.90;;;;;;;-0.15;80.38;101777.39;109335;1244;71515;-84
2023/03/17 03:50:49;;;;;;;8.70;3.30;;;;;;;-0.18;80.25;101781.72;109247;1244;70330;-82
2023/03/17 03:53:18;;;;;;;6.80;3.00;;;;;;;-0.20;80.20;101779.68;109406;1247;68600;-84
2023/03/17 03:55:47;;;;;;;7.40;2.90;;;;;;;-0.20;79.95;101784.13;109393;1244;73801;-84
2023/03/17 03:58:15;;;;;;;8.90;3.70;;;;;;;-0.24;80.00;101789.82;109312;1244;61487;-84
2023/03/17 04:00:45;;;;;;;5.30;2.80;;;;;;;-0.23;79.27;101788.10;109292;1247;58451;-82
2023/03/17 04:03:14;;;;;;;7.90;3.60;;;;;;;-0.22;79.34;101788.61;109297;1244;73396;-85
2023/03/17 04:05:43;;;;;;;6.40;3.50;;;;;;;-0.24;79.76;101796.52;109510;1244;70681;-84
2023/03/17 04:08:12;;;;;;;7.60;3.80;;;;;;;-0.21;79.39;101795.45;109445;1244;67872;-83
2023/03/17 04:10:41;;;;;;;7.70;3.60;;;;;;;-0.28;79.82;101798.42;109447;1244;71558;-83
2023/03/17 04:13:10;;;;;;;9.40;4.00;;;;;;;-0.31;79.73;101802.91;109472;1247;58870;-85
2023/03/17 04:15:39;;;;;;;8.00;4.00;;;;;;;-0.33;80.09;101805.32;109588;1244;61300;-82
2023/03/17 04:18:08;;;;;;;10.70;4.10;;;;;;;-0.31;80.13;101805.80;109436;1244;389925;-83
2023/03/17 04:20:37;;;;;;;8.70;4.10;;;;;;;-0.24;80.25;101805.92;109674;1247;69442;-85
2023/03/17 04:23:06;;;;;;;9.20;4.20;;;;;;;-0.21;80.19;101808.63;109651;1244;67976;-84
2023/03/17 04:25:35;;;;;;;7.20;3.60;;;;;;;-0.20;79.98;101808.95;109471;1244;72566;-87
2023/03/17 04:28:04;;;;;;;7.40;3.50;;;;;;;-0.20;79.63;101812.89;109438;1246;59985;-84
2023/03/17 04:30:33;;;;;;;10.40;4.30;;;;;;;-0.20;79.81;101814.44;109440;1244;59657;-86
2023/03/17 04:33:02;;;;;;;7.70;3.70;;;;;;;-0.25;79.77;101817.39;109461;1244;71737;-84
2023/03/17 04:35:31;;;;;;;9.70;3.80;;;;;;;-0.25;79.33;101818.26;109446;1244;70408;-84
2023/03/17 04:38:00;;;;;;;8.10;4.10;;;;;;;-0.27;79.31;101816.73;109539;1244;69661;-85
2023/03/17 04:40:29;;;;;;;10.70;4.50;;;;;;;-0.29;79.36;101818.64;109552;1244;74607;-87
2023/03/17 04:42:58;;;;;;;8.20;4.60;;;;;;;-0.34;79.89;101814.91;109574;1244;60771;-84
2023/03/17 04:45:29;;;;;;;10.60;4.10;;;;;;;-0.28;79.66;101815.37;109454;1244;61179;-86
2023/03/17 04:47:58;;;;;;;14.30;5.60;;;;;;;-0.23;79.66;101817.21;109388;1244;73153;-86
2023/03/17 04:50:27;;;;;;;13.70;4.90;;;;;;;-0.20;79.72;101819.23;109354;1249;70452;-85
2023/03/17 04:52:57;;;;;;;10.30;4.60;;;;;;;-0.18;79.48;101821.94;109480;1244;69931;-86
2023/03/17 04:55:26;;;;;;;10.40;4.60;;;;;;;-0.17;79.82;101826.73;109550;1244;74131;-84
2023/03/17 04:57:55;;;;;;;11.60;6.30;;;;;;;-0.14;79.48;101831.16;109648;1247;60087;-86
2023/03/17 05:00:24;;;;;;;9.80;4.20;;;;;;;-0.11;79.13;101831.45;109893;1245;60718;-85
2023/03/17 05:05:42;;;;;;;9.90;4.70;;;;;;;0.03;78.38;101836.80;106229;1283;600959;-87
2023/03/17 05:08:11;;;;;;;6.10;3.40;;;;;;;0.05;77.91;101840.89;107728;1248;61318;-87
2023/03/17 05:10:39;;;;;;;9.80;4.00;;;;;;;0.13;76.89;101837.71;107496;1253;61639;-88
2023/03/17 05:13:08;;;;;;;10.70;5.00;;;;;;;0.15;76.80;101837.52;107363;1248;68728;-83
2023/03/17 05:15:37;;;;;;;9.90;5.20;;;;;;;0.17;76.52;101836.64;107588;1245;70196;-80
2023/03/17 05:18:06;;;;;;;10.70;4.50;;;;;;;0.16;76.61;101846.08;107297;1248;70494;-81
2023/03/17 05:20:34;;;;;;;10.50;5.30;;;;;;;0.19;76.08;101848.44;109400;1242;72081;-80
2023/03/17 05:23:03;;;;;;;14.70;5.10;;;;;;;0.20;76.29;101851.51;109719;1244;58597;-79
2023/03/17 05:25:32;;;;;;;12.30;5.20;;;;;;;0.26;76.18;101854.70;108416;1244;60642;-82
2023/03/17 05:28:02;;;;;;;12.20;5.10;;;;;;;0.25;76.20;101857.62;107835;1241;69928;-82
2023/03/17 05:30:32;;;;;;;8.30;4.80;;;;;;;0.31;76.47;101857.73;109434;1241;72232;-82
2023/03/17 05:33:02;;;;;;;12.00;5.10;;;;;;;0.35;76.08;101860.43;107578;1250;68593;-82
2023/03/17 05:35:31;;;;;;;11.60;5.00;;;;;;;0.38;75.77;101861.08;109663;1243;73784;-79
2023/03/17 05:38:00;;;;;;;14.10;4.90;;;;;;;0.40;75.70;101867.23;109751;1241;61093;-81
2023/03/17 05:40:29;;;;;;;14.30;6.40;;;;;;;0.44;75.68;101865.64;109793;1241;59947;-83
2023/03/17 05:42:58;;;;;;;13.10;5.30;;;;;;;0.49;75.53;101868.99;109748;1241;73126;-83
2023/03/17 05:45:28;;;;;;;15.30;5.60;;;;;;;0.53;75.59;101873.91;109752;1241;71735;-81
2023/03/17 05:47:57;;;;;;;12.80;6.20;;;;;;;0.58;75.15;101873.17;109756;1241;71502;-82
2023/03/17 05:50:26;;;;;;;11.50;6.30;;;;;;;0.65;75.31;101878.91;109735;1241;73783;-81
2023/03/17 05:52:55;;;;;;;18.60;7.20;;;;;;;0.73;74.83;101883.44;109752;1242;59106;-81
2023/03/17 05:55:24;;;;;;;14.50;6.20;;;;;;;0.83;74.43;101885.20;109684;1241;60361;-81
2023/03/17 05:57:53;;;;;;;10.40;5.30;;;;;;;0.91;74.14;101883.20;109693;1241;73699;-82
2023/03/17 06:00:22;;;;;;;16.60;6.30;;;;;;;1.01;74.02;101878.77;109626;1241;71761;-84
2023/03/17 06:02:51;;;;;;;12.60;5.80;;;;;;;1.00;73.69;101887.02;109541;1241;70388;-83
2023/03/17 06:05:20;;;;;;;13.30;6.10;;;;;;;1.11;73.72;101884.30;109620;1241;74389;-81
2023/03/17 06:07:48;;;;;;;11.90;6.70;;;;;;;1.24;73.42;101890.46;109683;1242;61684;-82
2023/03/17 06:10:24;;;;;;;11.50;5.80;;;;;;;1.32;73.34;101888.27;109758;1241;60036;-80
2023/03/17 06:12:53;;;;;;;18.60;7.10;;;;;;;1.40;73.00;101894.67;109654;1241;72354;-81
2023/03/17 06:15:22;;;;;;;13.80;7.00;;;;;;;1.48;72.48;101888.71;109610;1241;71696;-82
2023/03/17 06:17:51;;;;;;;20.10;8.10;;;;;;;1.51;71.94;101892.61;109877;1241;70574;-81
2023/03/17 06:20:19;;;;;;;20.10;7.90;;;;;;;1.61;71.91;101893.14;109791;1241;73536;-81
2023/03/17 06:22:48;;;;;;;20.50;8.70;;;;;;;1.66;71.34;101893.75;109927;1242;60336;-83
2023/03/17 06:25:34;;;;;;;;;;;;;;;1.70;71.17;101900.88;109803;1241;61142;-81
2023/03/17 06:28:04;;;;;;;15.40;8.00;;;;;;;1.78;70.92;101904.71;109678;1242;70553;-82
2023/03/17 06:30:35;;;;;;;17.20;8.40;;;;;;;1.90;70.68;101897.12;109452;1241;71843;-81
2023/03/17 06:33:08;;;;;;;19.20;8.10;;;;;;;2.00;70.49;101901.06;109403;1241;70991;-81
2023/03/17 06:35:37;;;;;;;22.20;9.40;;;;;;;2.08;70.10;101906.23;109641;1243;73372;-80
2023/03/17 06:38:06;;;;;;;19.40;9.70;;;;;;;2.13;70.01;101903.24;109613;1242;60848;-83
2023/03/17 06:40:35;;;;;;;22.90;9.40;;;;;;;2.24;69.79;101906.48;109435;1244;61554;-81
2023/03/17 06:43:04;;;;;;;21.60;9.10;;;;;;;2.35;69.30;101904.37;109546;1245;70466;-82
2023/03/17 06:45:34;;;;;;;22.30;9.50;;;;;;;2.36;68.52;101905.39;109628;1244;70244;-81
2023/03/17 06:48:03;;;;;;;22.40;9.10;;;;;;;2.41;68.33;101898.77;109407;1243;68753;-83
2023/03/17 06:50:32;;;;;;;20.00;8.20;;;;;;;2.47;68.07;101900.52;109443;1242;71198;-83
2023/03/17 06:53:01;;;;;;;25.30;9.60;;;;;;;2.44;68.02;101904.73;109452;1244;57891;-81
2023/03/17 06:55:30;;;;;;;15.40;6.20;;;;;;;2.52;68.22;101901.80;109415;1243;60449;-83
2023/03/17 06:58:01;;;;;;;20.50;8.30;;;;;;;2.61;67.60;101903.67;109495;1242;73400;-84
2023/03/17 07:00:30;;;;;;;18.40;8.70;;;;;;;2.69;67.54;101899.73;109560;1244;70993;-83
2023/03/17 07:02:59;;;;;;;20.30;8.70;;;;;;;2.76;67.68;101904.23;109635;1242;68553;-82
2023/03/17 07:05:28;;;;;;;17.20;8.30;;;;;;;2.91;67.31;101912.52;109421;1243;71912;-82
2023/03/17 07:07:58;;;;;;;19.20;8.80;;;;;;;3.00;67.06;101904.23;109515;1245;59610;-84
2023/03/17 07:10:26;;;;;;;20.50;8.20;;;;;;;3.08;66.97;101903.19;109534;1242;61499;-83
2023/03/17 07:12:56;;;;;;;21.10;8.50;;;;;;;3.20;66.47;101902.93;109624;1242;72637;-81
2023/03/17 07:15:24;;;;;;;18.90;8.30;;;;;;;3.34;65.50;101902.42;109532;1243;72263;-81
2023/03/17 07:17:53;;;;;;;17.30;8.20;;;;;;;3.41;65.23;101904.16;109535;1245;69092;-83
2023/03/17 07:20:22;;;;;;;21.70;8.70;;;;;;;3.54;64.34;101898.00;109448;1245;71915;-84
2023/03/17 07:22:51;;;;;;;15.30;7.00;;;;;;;3.71;63.80;101897.91;109639;1244;59576;-80
2023/03/17 07:25:20;;;;;;;12.60;5.90;;;;;;;3.89;63.17;101893.16;109638;1244;60282;-81
2023/03/17 07:27:49;;;;;;;19.90;7.70;;;;;;;4.00;62.10;101897.36;109532;1243;73236;-81
2023/03/17 07:30:18;;;;;;;14.80;6.70;;;;;;;4.06;61.05;101895.16;109429;1247;69985;-85
2023/03/17 07:32:47;;;;;;;15.80;7.00;;;;;;;4.14;60.99;101892.69;109615;1243;67835;-83
2023/03/17 07:35:16;;;;;;;12.50;6.30;;;;;;;4.19;60.53;101890.65;109610;1243;63438;-84
2023/03/17 07:37:46;;;;;;;14.90;6.40;;;;;;;4.35;60.09;101891.25;109618;1242;58627;-79
2023/03/17 07:40:17;;;;;;;16.80;6.00;;;;;;;4.45;59.70;101889.07;109631;1243;61328;-81
2023/03/17 07:42:46;;;;;;;13.90;5.80;;;;;;;4.60;59.69;101890.39;109460;1244;73330;-81
2023/03/17 07:45:15;;;;;;;10.70;5.00;;;;;;;4.72;58.58;101896.77;109492;1242;61960;-82
2023/03/17 07:47:45;;;;;;;12.50;5.50;;;;;;;4.80;56.45;101886.86;109505;1242;70554;-82
2023/03/17 07:50:14;;;;;;;9.70;4.20;;;;;;;4.94;56.09;101882.65;109513;1244;74203;-82
2023/03/17 07:52:43;;;;;;;9.70;4.10;;;;;;;4.97;53.74;101890.33;109621;1244;61159;-82
2023/03/17 07:55:12;;;;;;;10.20;4.20;;;;;;;4.99;53.72;101886.10;109558;1244;60778;-80
2023/03/17 07:57:40;;;;;;;9.00;3.90;;;;;;;5.03;52.58;101892.02;109686;1244;73267;-81
2023/03/17 08:00:12;;;;;;;9.00;3.50;;;;;;;5.12;51.93;101887.77;109681;1244;61605;-81
2023/03/17 08:02:41;;;;;;;9.90;3.70;;;;;;;5.26;52.08;101878.86;109688;1244;59151;-82
2023/03/17 08:05:10;;;;;;;10.20;3.50;;;;;;;5.41;51.05;101881.86;109526;1244;73030;-83
2023/03/17 08:07:39;;;;;;;8.90;3.30;;;;;;;5.38;50.24;101877.27;109635;1242;59703;-79
2023/03/17 08:10:12;;;;;;;8.60;4.00;;;;;;;5.51;50.76;101874.27;109506;1243;60360;-80
2023/03/17 08:12:41;;;;;;;7.20;3.10;;;;;;;5.70;50.92;101879.20;109300;1245;72588;-80
2023/03/17 08:15:10;;;;;;;9.00;3.80;;;;;;;5.77;49.27;101889.31;109316;1244;71664;-82
2023/03/17 08:17:39;;;;;;;8.40;3.30;;;;;;;5.79;48.85;101877.64;109396;1246;60416;-81
2023/03/17 08:20:10;;;;;;;6.80;2.90;;;;;;;5.82;48.88;101884.47;109521;1243;63284;-84
2023/03/17 08:22:39;;;;;;;9.30;2.90;;;;;;;5.84;48.40;101883.73;109456;1245;60490;-84
2023/03/17 08:25:10;;;;;;;5.80;2.90;;;;;;;5.90;48.26;101880.60;109597;1244;57694;-82
2023/03/17 08:27:40;;;;;;;6.20;2.90;;;;;;;5.88;47.70;101878.60;109495;1244;71562;-81
2023/03/17 08:30:12;;;;;;;12.00;6.20;;;;;;;5.81;48.11;101874.67;109542;1242;70880;-81
2023/03/17 08:32:42;;;;;;;16.10;7.70;;;;;;;6.00;47.99;101879.41;109742;1243;70052;-81
2023/03/17 08:35:14;;;;;;;7.30;3.10;;;;;;;5.98;47.61;101876.51;109437;1244;74338;-83
2023/03/17 08:37:45;;;;;;;6.80;3.30;;;;;;;5.97;47.73;101877.95;109418;1245;57740;-82
2023/03/17 08:40:17;;;;;;;10.50;4.10;;;;;;;6.05;47.76;101869.39;109340;1245;60381;-83
2023/03/17 08:42:47;;;;;;;7.50;4.10;;;;;;;6.07;47.50;101871.71;109503;1245;73242;-82
2023/03/17 08:46:12;;;;;;;7.00;2.80;;;;;;;6.06;46.48;101877.47;109375;1248;61291;-83
2023/03/17 08:48:41;;;;;;;;;;;;;;;6.01;47.13;101864.15;109678;1243;71047;-82
2023/03/17 08:51:11;;;;;;;10.60;3.00;;;;;;;6.14;47.52;101864.58;109695;1244;62764;-79
2023/03/17 08:53:40;;;;;;;8.30;2.30;;;;;;;6.30;46.90;101861.90;109532;1245;58940;-82
2023/03/17 08:56:09;;;;;;;6.30;2.60;;;;;;;6.42;45.69;101867.70;109579;1243;57080;-82
2023/03/17 08:58:39;;;;;;;4.00;2.50;;;;;;;6.35;45.99;101857.04;109699;1244;61416;-83
2023/03/17 09:01:09;;;;;;;7.10;2.60;;;;;;;6.43;46.06;101860.05;109654;1243;71394;-82
2023/03/17 09:03:39;;;;;;;5.40;2.50;;;;;;;6.55;44.65;101856.32;109583;1242;59807;-85
2023/03/17 09:06:11;;;;;;;5.80;2.50;;;;;;;6.69;44.27;101855.08;109499;1244;63277;-79
2023/03/17 09:08:46;;;;;;;5.00;2.10;;;;;;;6.74;44.15;101862.35;109590;1245;59722;-82
2023/03/17 09:11:19;;;;;;;5.90;2.90;;;;;;;6.55;43.40;101833.98;109631;1242;61470;-83
2023/03/17 09:13:48;;;;;;;4.80;2.40;;;;;;;6.79;43.61;101843.48;109717;1243;72822;-80
2023/03/17 09:16:18;;;;;;;5.90;2.50;;;;;;;6.79;43.85;101848.30;109644;1243;61605;-83
2023/03/17 09:18:47;;;;;;;4.50;2.20;;;;;;;6.84;43.68;101841.17;109568;1245;69715;-83
2023/03/17 09:21:16;;;;;;;4.90;2.10;;;;;;;6.92;42.31;101846.61;109547;1243;63687;-82
2023/03/17 09:23:45;;;;;;;8.60;5.20;;;;;;;6.91;42.05;101841.29;109683;1242;59237;-84
2023/03/17 09:26:14;;;;;;;4.80;2.60;;;;;;;6.88;41.76;101850.21;109592;1244;57710;-83
2023/03/17 09:28:43;;;;;;;6.00;2.40;;;;;;;6.98;42.25;101839.79;109671;1242;62976;-83
2023/03/17 09:31:12;;;;;;;8.10;2.50;;;;;;;7.07;42.18;101831.28;109584;1244;61699;-82
2023/03/17 09:33:41;;;;;;;6.90;3.00;;;;;;;7.12;42.01;101839.89;109696;1242;69388;-82
2023/03/17 09:36:10;;;;;;;4.60;2.20;;;;;;;7.14;41.92;101840.17;109571;1244;63009;-84
2023/03/17 09:38:39;;;;;;;9.30;2.70;;;;;;;7.37;41.54;101835.23;109666;1242;59669;-85
2023/03/17 09:41:11;;;;;;;5.30;2.00;;;;;;;7.33;40.31;101838.18;109663;1243;57694;-82
2023/03/17 09:44:07;;;;;;;5.70;2.50;;;;;;;7.37;40.25;101844.81;109654;1244;73637;-83
2023/03/17 09:46:57;;;;;;;7.50;3.00;;;;;;;7.41;40.51;101831.61;109730;1242;60957;-81
2023/03/17 09:49:44;;;;;;;4.30;2.20;;;;;;;7.49;40.62;101833.55;109743;1242;69733;-85
2023/03/17 09:52:23;;;;;;;5.00;2.20;;;;;;;7.63;40.56;101833.47;109432;1244;73455;-81
2023/03/17 09:54:53;;;;;;;6.30;3.00;;;;;;;7.60;40.17;101839.15;109415;1245;57717;-82
2023/03/17 09:57:36;;;;;;;5.50;2.60;;;;;;;7.44;40.29;101834.30;109669;1242;57296;-83
2023/03/17 10:00:14;;;;;;;5.70;2.20;;;;;;;7.63;40.37;101830.20;109462;1243;62999;-85
2023/03/17 10:02:43;;;;;;;6.10;2.60;;;;;;;7.91;40.07;101829.34;109660;1243;72066;-83
2023/03/17 10:05:27;;;;;;;5.40;2.50;;;;;;;8.02;39.15;101830.61;109626;1244;61845;-82
2023/03/17 10:08:00;;;;;;;3.90;2.20;;;;;;;8.03;36.74;101825.19;109989;1244;62594;-83
2023/03/17 10:11:01;;;;;;;4.80;1.80;;;;;;;8.01;36.32;101819.70;109841;1243;57135;-84
2023/03/17 10:14:03;;;;;;;5.20;2.10;;;;;;;8.32;37.52;101817.12;109685;1244;57142;-79
2023/03/17 10:16:56;;;;;;;5.90;1.90;;;;;;;8.46;36.40;101821.38;109686;1242;62912;-81
2023/03/17 10:19:37;;;;;;;3.90;1.70;;;;;;;8.34;35.82;101819.45;109595;1243;62273;-84
2023/03/17 10:22:26;;;;;;;6.40;1.50;;;;;;;8.49;35.19;101808.20;109629;1242;70532;-84
2023/03/17 10:25:03;;;;;;;5.50;1.70;;;;;;;8.57;34.09;101815.63;109536;1245;63441;-83
2023/03/17 10:27:36;;;;;;;6.00;1.70;;;;;;;8.47;33.53;101812.45;109524;1242;60385;-85
2023/03/17 10:30:20;;;;;;;5.10;1.70;;;;;;;8.45;33.33;101809.23;109521;1242;62122;-85
2023/03/17 10:32:51;;;;;;;4.70;1.80;;;;;;;8.82;33.75;101790.48;109361;1244;73257;-82
2023/03/17 10:35:22;;;;;;;6.00;1.60;;;;;;;9.15;33.61;101792.35;109506;1244;72719;-83
2023/03/17 10:37:51;;;;;;;4.70;1.50;;;;;;;9.12;33.13;101807.45;109446;1242;59404;-83
2023/03/17 10:40:39;;;;;;;4.00;1.60;;;;;;;8.65;32.56;101810.25;109482;1243;63155;-84
2023/03/17 10:43:17;;;;;;;5.10;1.90;;;;;;;8.25;33.20;101797.29;109345;1244;59693;-84
2023/03/17 10:46:02;;;;;;;2.80;1.40;;;;;;;8.48;33.29;101774.38;109359;1241;59272;-83
2023/03/17 10:48:37;;;;;;;2.10;1.00;;;;;;;9.01;32.50;101782.10;109554;1241;72727;-83
2023/03/17 10:51:09;;;;;;;3.90;1.40;;;;;;;9.63;31.72;101775.70;109552;1241;71985;-82
2023/03/17 10:53:43;;;;;;;4.10;1.60;;;;;;;9.66;31.05;101775.71;109588;1241;59471;-83
2023/03/17 10:56:26;;;;;;;4.00;1.40;;;;;;;9.52;31.14;101774.84;109361;1241;72342;-82
2023/03/17 10:58:55;;;;;;;3.80;1.30;;;;;;;9.61;30.30;101770.78;109563;1242;60888;-81
2023/03/17 11:01:38;;;;;;;3.20;1.70;;;;;;;9.82;30.45;101772.98;109586;1241;57253;-86
2023/03/17 11:04:32;;;;;;;4.40;1.40;;;;;;;9.72;30.13;101774.17;109461;1241;62187;-84
2023/03/17 11:07:14;;;;;;;4.90;1.70;;;;;;;9.23;30.73;101773.04;109537;1241;60905;-85
2023/03/17 11:09:47;;;;;;;5.50;1.80;;;;;;;9.18;31.01;101765.12;109374;1241;70476;-83
2023/03/17 11:12:39;;;;;;;4.90;2.00;;;;;;;9.78;31.00;101755.97;109464;1241;72372;-84
2023/03/17 11:15:16;;;;;;;5.10;1.50;;;;;;;10.03;30.34;101763.88;109523;1244;57726;-83
2023/03/17 11:18:06;;;;;;;2.80;1.50;;;;;;;9.36;30.18;101768.88;109387;1241;57260;-84
2023/03/17 11:20:49;;;;;;;2.90;1.00;;;;;;;9.42;30.14;101754.52;109603;1241;62121;-82
2023/03/17 11:23:42;;;;;;;4.30;1.40;;;;;;;9.67;29.54;101750.42;109662;1241;62204;-84
2023/03/17 11:26:20;;;;;;;3.00;1.50;;;;;;;9.82;28.45;101743.56;109777;1241;59936;-86
2023/03/17 11:29:09;;;;;;;4.60;1.50;;;;;;;10.63;28.61;101735.36;109714;1241;72994;-83
2023/03/17 11:31:58;;;;;;;4.30;1.60;;;;;;;11.07;27.94;101729.17;109552;1244;61123;-83
2023/03/17 11:35:26;;;;;;;5.30;1.30;;;;;;;10.81;27.54;101723.15;109577;1241;59772;-83
2023/03/17 11:38:18;;;;;;;4.40;1.40;;;;;;;10.90;27.67;101731.55;109603;1241;63538;-84
2023/03/17 11:41:24;;;;;;;3.60;1.60;;;;;;;10.31;28.07;101737.27;109371;1241;71451;-85
2023/03/17 11:44:02;;;;;;;3.80;1.40;;;;;;;10.26;28.26;101738.10;109543;1241;70432;-84
2023/03/17 11:46:51;;;;;;;3.70;1.60;;;;;;;10.18;28.52;101732.77;109526;1241;73037;-83
2023/03/17 11:49:33;;;;;;;4.30;1.60;;;;;;;10.49;28.74;101730.73;109478;1242;61710;-81